createdAt,value
2022-11-12T00:01:13.065Z,4.83
2022-11-12T00:03:58.499Z,5.53
2022-11-12T00:06:43.873Z,4.90
2022-11-12T00:09:29.106Z,3.00
2022-11-12T00:12:14.518Z,3.90
2022-11-12T00:14:59.926Z,6.03
2022-11-12T00:17:45.638Z,5.27
2022-11-12T00:20:30.892Z,4.23
2022-11-12T00:23:16.451Z,2.90
2022-11-12T00:26:02.345Z,2.40
2022-11-12T00:28:47.567Z,4.80
2022-11-12T00:31:34.496Z,2.23
2022-11-12T00:34:20.597Z,3.20
2022-11-12T00:37:06.170Z,1.80
2022-11-12T00:39:51.367Z,3.00
2022-11-12T00:42:36.565Z,2.90
2022-11-12T00:45:22.463Z,2.30
2022-11-12T00:48:07.427Z,2.00
2022-11-12T00:51:03.458Z,2.50
2022-11-12T00:53:49.124Z,2.23
2022-11-12T00:56:35.756Z,1.73
2022-11-12T00:59:21.092Z,3.23
2022-11-12T01:02:06.454Z,1.83
2022-11-12T01:04:51.832Z,2.97
2022-11-12T01:07:37.188Z,5.43
2022-11-12T01:10:22.804Z,2.77
2022-11-12T01:13:08.054Z,2.20
2022-11-12T01:15:53.379Z,4.03
2022-11-12T01:18:39.290Z,2.70
2022-11-12T01:21:27.633Z,1.80
2022-11-12T01:24:13.288Z,5.53
2022-11-12T01:26:58.758Z,2.73
2022-11-12T01:29:44.166Z,1.57
2022-11-12T01:32:29.594Z,2.43
2022-11-12T01:35:14.997Z,1.57
2022-11-12T01:38:00.331Z,1.10
2022-11-12T01:40:45.840Z,1.60
2022-11-12T01:43:31.082Z,1.30
2022-11-12T01:46:28.877Z,1.67
2022-11-12T01:49:35.566Z,1.93
2022-11-12T01:52:30.867Z,1.70
2022-11-12T01:55:22.490Z,2.50
2022-11-12T01:58:13.695Z,3.47
2022-11-12T02:01:00.950Z,1.40
2022-11-12T02:03:46.232Z,5.03
2022-11-12T02:06:32.251Z,1.60
2022-11-12T02:09:17.935Z,1.20
2022-11-12T02:12:03.360Z,1.37
2022-11-12T02:14:48.711Z,2.00
2022-11-12T02:17:34.222Z,4.20
2022-11-12T02:20:20.014Z,3.77
2022-11-12T02:23:06.989Z,2.03
2022-11-12T02:25:52.064Z,3.13
2022-11-12T02:28:37.602Z,1.83
2022-11-12T02:31:23.232Z,2.93
2022-11-12T02:34:08.601Z,2.60
2022-11-12T02:36:54.164Z,1.90
2022-11-12T02:39:39.384Z,1.07
2022-11-12T02:42:24.721Z,2.27
2022-11-12T02:45:10.741Z,1.67
2022-11-12T02:47:56.745Z,2.53
2022-11-12T02:50:41.889Z,2.27
2022-11-12T02:53:27.348Z,2.03
2022-11-12T02:56:12.690Z,1.50
2022-11-12T02:58:58.076Z,1.20
2022-11-12T03:01:43.271Z,2.10
2022-11-12T03:04:28.734Z,2.03
2022-11-12T03:07:14.248Z,1.53
2022-11-12T03:09:59.453Z,1.53
2022-11-12T03:12:44.945Z,2.13
2022-11-12T03:15:30.544Z,1.43
2022-11-12T03:18:16.175Z,1.70
2022-11-12T03:21:01.576Z,3.30
2022-11-12T03:23:46.625Z,2.20
2022-11-12T03:26:35.735Z,1.30
2022-11-12T03:29:21.513Z,1.17
2022-11-12T03:32:07.107Z,1.07
2022-11-12T03:34:55.378Z,2.27
2022-11-12T03:37:40.921Z,2.47
2022-11-12T03:40:27.035Z,2.57
2022-11-12T03:43:12.179Z,1.57
2022-11-12T03:45:57.557Z,1.10
2022-11-12T03:48:42.821Z,1.83
2022-11-12T03:51:28.081Z,1.53
2022-11-12T03:54:13.589Z,1.73
2022-11-12T03:56:59.072Z,1.23
2022-11-12T03:59:44.422Z,1.70
2022-11-12T04:02:30.105Z,2.10
2022-11-12T04:05:35.576Z,4.67
2022-11-12T04:08:38.920Z,1.90
2022-11-12T04:11:25.002Z,2.30
2022-11-12T04:14:10.103Z,1.80
2022-11-12T04:17:14.036Z,4.30
2022-11-12T04:20:17.852Z,2.67
2022-11-12T04:23:03.270Z,3.40
2022-11-12T04:26:07.543Z,2.87
2022-11-12T04:29:11.501Z,5.90
2022-11-12T04:31:56.884Z,3.53
2022-11-12T04:34:42.540Z,2.40
2022-11-12T04:37:29.712Z,7.33
2022-11-12T04:40:37.325Z,43.33
2022-11-12T04:43:41.211Z,6.73
2022-11-12T04:46:26.578Z,5.50
2022-11-12T04:49:11.905Z,9.57
2022-11-12T04:52:06.139Z,10.20
2022-11-12T04:54:52.128Z,9.83
2022-11-12T04:57:38.578Z,10.43
2022-11-12T05:00:23.851Z,9.50
2022-11-12T05:03:09.096Z,6.73
2022-11-12T05:06:01.305Z,15.40
2022-11-12T05:08:46.228Z,15.40
2022-11-12T05:11:31.619Z,5.00
2022-11-12T05:14:17.433Z,4.63
2022-11-12T05:17:02.697Z,9.90
2022-11-12T05:19:48.236Z,4.40
2022-11-12T05:22:44.320Z,5.77
2022-11-12T05:25:33.186Z,7.30
2022-11-12T05:28:18.391Z,4.37
2022-11-12T05:31:03.797Z,3.17
2022-11-12T05:33:49.172Z,4.80
2022-11-12T05:36:34.956Z,4.23
2022-11-12T05:39:20.350Z,3.27
2022-11-12T05:42:12.921Z,3.73
2022-11-12T05:44:59.101Z,3.17
2022-11-12T05:47:44.465Z,3.27
2022-11-12T05:50:34.832Z,2.77
2022-11-12T05:53:25.317Z,3.70
2022-11-12T05:56:11.371Z,3.03
2022-11-12T05:58:57.421Z,2.50
2022-11-12T06:01:45.379Z,2.63
2022-11-12T06:04:30.535Z,2.57
2022-11-12T06:07:15.946Z,2.97
2022-11-12T06:10:01.282Z,3.53
2022-11-12T06:12:46.713Z,2.40
2022-11-12T06:15:36.489Z,2.93
2022-11-12T06:18:25.389Z,3.77
2022-11-12T06:21:22.524Z,8.63
2022-11-12T06:24:08.039Z,8.57
2022-11-12T06:26:53.471Z,8.07
2022-11-12T06:29:39.005Z,12.60
2022-11-12T06:32:24.875Z,4.67
2022-11-12T06:35:10.207Z,6.73
2022-11-12T06:37:55.718Z,6.47
2022-11-12T06:40:42.396Z,4.47
2022-11-12T06:43:29.649Z,9.87
2022-11-12T06:46:16.723Z,8.17
2022-11-12T06:49:01.886Z,4.90
2022-11-12T06:51:50.014Z,7.60
2022-11-12T06:54:35.234Z,4.30
2022-11-12T06:57:20.476Z,8.23
2022-11-12T07:00:06.482Z,7.27
2022-11-12T07:02:51.807Z,8.10
2022-11-12T07:05:38.157Z,8.23
2022-11-12T07:08:23.520Z,8.27
2022-11-12T07:11:09.760Z,6.97
2022-11-12T07:13:55.106Z,7.67
2022-11-12T07:16:40.645Z,12.13
2022-11-12T07:19:26.258Z,8.97
2022-11-12T07:22:11.565Z,15.77
2022-11-12T07:24:56.813Z,7.67
2022-11-12T07:27:42.511Z,23.33
2022-11-12T07:30:27.661Z,11.53
2022-11-12T07:33:13.109Z,10.17
2022-11-12T07:36:04.708Z,9.77
2022-11-12T07:38:54.610Z,10.53
2022-11-12T07:41:40.086Z,10.00
2022-11-12T07:44:25.393Z,12.33
2022-11-12T07:47:10.862Z,8.83
2022-11-12T07:49:56.149Z,13.57
2022-11-12T07:52:41.534Z,15.30
2022-11-12T07:55:26.920Z,15.13
2022-11-12T07:58:12.096Z,17.90
2022-11-12T08:00:57.632Z,17.27
2022-11-12T08:03:42.763Z,12.73
2022-11-12T08:06:29.332Z,16.37
2022-11-12T08:09:14.675Z,11.03
2022-11-12T08:12:00.276Z,13.23
2022-11-12T08:14:45.684Z,15.57
2022-11-12T08:17:31.139Z,11.00
2022-11-12T08:20:17.039Z,12.43
2022-11-12T08:23:02.102Z,10.63
2022-11-12T08:25:47.798Z,9.77
2022-11-12T08:28:34.997Z,10.23
2022-11-12T08:31:22.774Z,10.77
2022-11-12T08:34:18.541Z,12.20
2022-11-12T08:37:07.477Z,10.73
2022-11-12T08:39:53.061Z,9.60
2022-11-12T08:42:38.753Z,10.43
2022-11-12T08:45:24.247Z,9.37
2022-11-12T08:48:13.770Z,8.40
2022-11-12T08:51:02.406Z,21.47
2022-11-12T08:53:47.785Z,13.50
2022-11-12T08:56:33.956Z,19.80
2022-11-12T08:59:19.095Z,13.13
2022-11-12T09:02:05.838Z,11.23
2022-11-12T09:04:50.926Z,21.83
2022-11-12T09:07:49.484Z,18.30
2022-11-12T09:10:36.968Z,15.97
2022-11-12T09:13:22.579Z,13.33
2022-11-12T09:16:09.731Z,14.40
2022-11-12T09:18:54.935Z,11.87
2022-11-12T09:21:40.318Z,13.40
2022-11-12T09:24:25.619Z,21.13
2022-11-12T09:27:11.078Z,14.23
2022-11-12T09:29:56.471Z,10.73
2022-11-12T09:32:41.960Z,12.33
2022-11-12T09:35:27.249Z,14.53
2022-11-12T09:38:14.916Z,13.93
2022-11-12T09:41:25.042Z,13.00
2022-11-12T09:44:16.756Z,11.93
2022-11-12T09:47:26.837Z,8.20
2022-11-12T09:50:24.727Z,9.37
2022-11-12T09:53:43.030Z,11.07
2022-11-12T09:56:29.890Z,9.30
2022-11-12T09:59:15.252Z,9.17
2022-11-12T10:02:29.145Z,9.30
2022-11-12T10:05:32.361Z,11.23
2022-11-12T10:08:24.035Z,9.27
2022-11-12T10:12:04.041Z,10.20
2022-11-12T10:15:34.791Z,11.73
2022-11-12T10:18:47.966Z,10.53
2022-11-12T10:21:42.175Z,11.20
2022-11-12T10:24:33.964Z,11.13
2022-11-12T10:27:27.717Z,12.00
2022-11-12T10:30:20.205Z,9.73
2022-11-12T10:33:05.644Z,10.73
2022-11-12T10:35:52.718Z,9.53
2022-11-12T10:38:38.499Z,10.70
2022-11-12T10:41:23.991Z,11.30
2022-11-12T10:44:15.089Z,12.67
2022-11-12T10:47:26.841Z,11.37
2022-11-12T10:50:29.176Z,11.30
2022-11-12T10:53:47.026Z,14.30
2022-11-12T10:56:32.724Z,12.13
2022-11-12T10:59:22.815Z,13.53
2022-11-12T11:02:16.980Z,10.83
2022-11-12T11:05:29.236Z,12.27
2022-11-12T11:08:14.568Z,12.43
2022-11-12T11:11:21.610Z,11.97
2022-11-12T11:14:22.038Z,11.57
2022-11-12T11:17:19.100Z,11.73
2022-11-12T11:20:11.086Z,12.03
2022-11-12T11:22:58.763Z,13.03
2022-11-12T11:25:47.743Z,13.70
2022-11-12T11:28:42.749Z,12.83
2022-11-12T11:32:06.214Z,11.90
2022-11-12T11:35:12.793Z,11.57
2022-11-12T11:38:21.723Z,13.07
2022-11-12T11:41:22.291Z,11.93
2022-11-12T11:44:42.680Z,12.50
2022-11-12T11:48:02.451Z,13.67
2022-11-12T11:51:25.853Z,14.93
2022-11-12T11:54:17.578Z,15.17
2022-11-12T11:57:12.329Z,16.07
2022-11-12T12:00:20.866Z,17.33
2022-11-12T12:03:22.532Z,16.50
2022-11-12T12:06:11.238Z,15.43
2022-11-12T12:09:27.300Z,14.60
2022-11-12T12:12:24.606Z,14.33
2022-11-12T12:15:26.959Z,12.73
2022-11-12T12:18:41.725Z,15.27
2022-11-12T12:21:31.966Z,14.60
2022-11-12T12:24:28.372Z,14.07
2022-11-12T12:27:27.359Z,15.50
2022-11-12T12:30:21.636Z,14.97
2022-11-12T12:33:32.347Z,12.93
2022-11-12T12:36:24.785Z,14.77
2022-11-12T12:39:26.111Z,14.47
2022-11-12T12:42:42.792Z,15.10
2022-11-12T12:45:41.637Z,13.70
2022-11-12T12:48:35.665Z,14.60
2022-11-12T12:51:22.551Z,12.57
2022-11-12T12:54:35.938Z,12.80
2022-11-12T12:57:35.179Z,13.37
2022-11-12T13:00:37.989Z,12.97
2022-11-12T13:03:44.804Z,12.47
2022-11-12T13:06:34.424Z,16.00
2022-11-12T13:09:19.792Z,12.67
2022-11-12T13:12:05.299Z,15.20
2022-11-12T13:14:54.274Z,17.60
2022-11-12T13:17:45.718Z,16.13
2022-11-12T13:20:34.590Z,19.97
2022-11-12T13:24:10.994Z,15.37
2022-11-12T13:27:01.045Z,16.83
2022-11-12T13:29:47.611Z,16.03
2022-11-12T13:32:47.862Z,15.43
2022-11-12T13:35:38.263Z,14.40
2022-11-12T13:38:23.724Z,16.47
2022-11-12T13:41:19.381Z,17.57
2022-11-12T13:44:08.926Z,18.00
2022-11-12T13:46:55.867Z,18.43
2022-11-12T13:49:43.837Z,17.73
2022-11-12T13:52:29.439Z,17.80
2022-11-12T13:55:14.633Z,17.83
2022-11-12T13:58:00.112Z,16.67
2022-11-12T14:00:56.581Z,16.73
2022-11-12T14:03:45.032Z,17.97
2022-11-12T14:06:37.819Z,15.43
2022-11-12T14:09:38.802Z,17.03
2022-11-12T14:12:47.916Z,15.47
2022-11-12T14:15:51.556Z,15.33
2022-11-12T14:19:06.700Z,14.20
2022-11-12T14:22:15.653Z,24.03
2022-11-12T14:25:02.239Z,16.13
2022-11-12T14:27:49.529Z,15.93
2022-11-12T14:30:42.664Z,13.77
2022-11-12T14:33:29.896Z,13.77
2022-11-12T14:36:18.860Z,15.17
2022-11-12T14:39:04.447Z,13.10
2022-11-12T14:41:51.544Z,14.43
2022-11-12T14:44:37.949Z,12.80
2022-11-12T14:47:24.182Z,13.00
2022-11-12T14:50:27.010Z,12.67
2022-11-12T14:53:25.147Z,12.37
2022-11-12T14:56:22.338Z,13.27
2022-11-12T14:59:10.282Z,16.83
2022-11-12T15:02:31.661Z,15.27
2022-11-12T15:05:22.059Z,15.67
2022-11-12T15:08:11.726Z,13.57
2022-11-12T15:10:57.878Z,14.53
2022-11-12T15:13:44.628Z,13.97
2022-11-12T15:16:33.195Z,14.37
2022-11-12T15:19:29.387Z,15.50
2022-11-12T15:22:22.760Z,17.60
2022-11-12T15:25:31.138Z,15.30
2022-11-12T15:28:25.180Z,14.27
2022-11-12T15:31:19.576Z,20.03
2022-11-12T15:34:23.798Z,14.47
2022-11-12T15:37:17.916Z,14.50
2022-11-12T15:40:18.682Z,15.10
2022-11-12T15:43:03.931Z,16.23
2022-11-12T15:45:51.682Z,15.63
2022-11-12T15:48:36.768Z,15.37
2022-11-12T15:51:22.199Z,16.97
2022-11-12T15:54:07.874Z,14.67
2022-11-12T15:56:53.361Z,15.40
2022-11-12T15:59:38.779Z,15.37
2022-11-12T16:02:24.827Z,16.20
2022-11-12T16:05:18.270Z,15.13
2022-11-12T16:08:03.565Z,16.00
2022-11-12T16:10:49.524Z,24.53
2022-11-12T16:13:34.776Z,20.50
2022-11-12T16:16:20.264Z,17.20
2022-11-12T16:19:16.615Z,18.80
2022-11-12T16:22:03.718Z,18.33
2022-11-12T16:24:48.790Z,18.33
2022-11-12T16:27:34.557Z,18.50
2022-11-12T16:30:22.577Z,17.63
2022-11-12T16:33:11.369Z,19.40
2022-11-12T16:35:56.368Z,19.73
2022-11-12T16:38:42.412Z,18.63
2022-11-12T16:41:27.670Z,17.17
2022-11-12T16:44:13.105Z,18.90
2022-11-12T16:47:01.603Z,19.57
2022-11-12T16:49:46.535Z,18.93
2022-11-12T16:52:31.924Z,19.23
2022-11-12T16:55:17.486Z,20.17
2022-11-12T16:58:02.868Z,19.00
2022-11-12T17:00:50.198Z,21.03
2022-11-12T17:03:35.355Z,19.93
2022-11-12T17:06:21.591Z,17.10
2022-11-12T17:09:08.533Z,21.37
2022-11-12T17:11:53.482Z,18.50
2022-11-12T17:14:38.944Z,20.23
2022-11-12T17:17:24.212Z,18.43
2022-11-12T17:20:09.964Z,25.37
2022-11-12T17:22:55.107Z,19.97
2022-11-12T17:25:40.453Z,20.57
2022-11-12T17:28:28.695Z,20.17
2022-11-12T17:31:22.048Z,21.17
2022-11-12T17:34:07.359Z,21.77
2022-11-12T17:36:52.903Z,20.40
2022-11-12T17:39:38.163Z,25.53
2022-11-12T17:42:23.440Z,19.10
2022-11-12T17:45:09.102Z,22.63
2022-11-12T17:47:54.183Z,19.43
2022-11-12T17:50:39.573Z,20.80
2022-11-12T17:53:25.342Z,18.30
2022-11-12T17:56:13.961Z,19.63
2022-11-12T17:59:00.697Z,22.63
2022-11-12T18:01:45.871Z,20.70
2022-11-12T18:04:31.258Z,18.63
2022-11-12T18:07:16.492Z,18.27
2022-11-12T18:10:01.982Z,18.03
2022-11-12T18:12:47.188Z,23.00
2022-11-12T18:15:32.589Z,18.53
2022-11-12T18:18:19.685Z,19.20
2022-11-12T18:21:05.316Z,18.50
2022-11-12T18:23:51.183Z,18.47
2022-11-12T18:26:36.460Z,17.10
2022-11-12T18:29:21.796Z,15.73
2022-11-12T18:32:07.800Z,16.03
2022-11-12T18:34:52.719Z,13.13
2022-11-12T18:37:38.285Z,16.93
2022-11-12T18:40:23.830Z,17.53
2022-11-12T18:43:08.949Z,16.73
2022-11-12T18:45:55.755Z,14.23
2022-11-12T18:48:40.785Z,16.07
2022-11-12T18:51:26.307Z,15.53
2022-11-12T18:54:11.581Z,15.47
2022-11-12T18:56:57.103Z,15.03
2022-11-12T18:59:42.495Z,14.67
2022-11-12T19:02:27.877Z,13.20
2022-11-12T19:05:13.179Z,11.33
2022-11-12T19:07:58.955Z,11.20
2022-11-12T19:10:43.931Z,11.57
2022-11-12T19:13:30.090Z,14.67
2022-11-12T19:16:17.400Z,14.70
2022-11-12T19:19:02.777Z,15.87
2022-11-12T19:21:48.801Z,12.27
2022-11-12T19:24:34.142Z,12.40
2022-11-12T19:27:19.798Z,12.43
2022-11-12T19:30:06.849Z,57.53
2022-11-12T19:32:52.285Z,52.17
2022-11-12T19:35:40.484Z,17.53
2022-11-12T19:38:26.156Z,10.73
2022-11-12T19:41:19.056Z,12.50
2022-11-12T19:44:05.129Z,10.77
2022-11-12T19:46:50.410Z,20.93
2022-11-12T19:49:35.711Z,23.40
2022-11-12T19:52:22.326Z,15.87
2022-11-12T19:55:07.732Z,11.07
2022-11-12T19:57:52.979Z,12.20
2022-11-12T20:00:38.358Z,11.17
2022-11-12T20:03:25.783Z,14.10
2022-11-12T20:06:15.351Z,12.20
2022-11-12T20:09:00.421Z,10.63
2022-11-12T20:11:45.733Z,15.20
2022-11-12T20:14:32.309Z,10.47
2022-11-12T20:17:17.445Z,8.50
2022-11-12T20:20:04.290Z,9.10
2022-11-12T20:22:49.435Z,8.97
2022-11-12T20:25:34.779Z,8.30
2022-11-12T20:28:20.312Z,9.23
2022-11-12T20:31:09.904Z,9.20
2022-11-12T20:33:56.436Z,7.33
2022-11-12T20:36:41.643Z,8.27
2022-11-12T20:39:26.976Z,7.97
2022-11-12T20:42:12.335Z,5.60
2022-11-12T20:44:57.749Z,8.87
2022-11-12T20:47:43.180Z,7.20
2022-11-12T20:50:28.471Z,6.23
2022-11-12T20:53:13.798Z,8.47
2022-11-12T20:56:10.566Z,11.53
2022-11-12T20:58:56.455Z,11.67
2022-11-12T21:01:42.093Z,20.00
2022-11-12T21:04:27.412Z,7.23
2022-11-12T21:07:12.905Z,12.30
2022-11-12T21:09:58.298Z,11.20
2022-11-12T21:12:43.634Z,12.33
2022-11-12T21:15:29.085Z,7.87
2022-11-12T21:18:14.423Z,6.80
2022-11-12T21:21:08.383Z,11.47
2022-11-12T21:23:53.953Z,8.07
2022-11-12T21:26:39.507Z,7.03
2022-11-12T21:29:24.499Z,10.90
2022-11-12T21:32:09.795Z,7.77
2022-11-12T21:34:55.705Z,8.10
2022-11-12T21:37:41.179Z,11.50
2022-11-12T21:40:26.526Z,5.90
2022-11-12T21:43:11.853Z,6.53
2022-11-12T21:45:57.841Z,6.70
2022-11-12T21:48:44.307Z,5.30
2022-11-12T21:51:31.993Z,10.67
2022-11-12T21:54:17.274Z,6.77
2022-11-12T21:57:02.561Z,5.57
2022-11-12T21:59:48.055Z,5.70
2022-11-12T22:02:33.474Z,9.27
2022-11-12T22:05:18.718Z,13.60
2022-11-12T22:08:04.310Z,5.43
2022-11-12T22:10:49.715Z,4.87
2022-11-12T22:13:36.639Z,8.60
2022-11-12T22:16:24.278Z,4.70
2022-11-12T22:19:10.657Z,5.67
2022-11-12T22:21:55.977Z,7.70
2022-11-12T22:24:41.463Z,5.67
2022-11-12T22:27:29.207Z,6.90
2022-11-12T22:30:14.343Z,4.27
2022-11-12T22:32:59.887Z,8.73
2022-11-12T22:35:45.546Z,4.13
2022-11-12T22:38:38.982Z,5.07
2022-11-12T22:41:27.359Z,6.00
2022-11-12T22:44:12.462Z,6.13
2022-11-12T22:46:58.069Z,5.97
2022-11-12T22:49:43.165Z,5.80
2022-11-12T22:52:28.546Z,5.73
2022-11-12T22:55:14.134Z,5.33
2022-11-12T22:58:00.382Z,8.20
2022-11-12T23:00:45.706Z,5.50
2022-11-12T23:03:32.220Z,9.00
2022-11-12T23:06:18.246Z,5.23
2022-11-12T23:09:03.679Z,5.53
2022-11-12T23:11:48.589Z,8.77
2022-11-12T23:14:33.989Z,11.43
2022-11-12T23:17:19.566Z,8.70
2022-11-12T23:20:05.555Z,5.10
2022-11-12T23:22:51.866Z,7.47
2022-11-12T23:25:37.873Z,4.00
2022-11-12T23:28:23.245Z,5.87
2022-11-12T23:31:19.999Z,5.83
2022-11-12T23:34:05.505Z,8.43
2022-11-12T23:36:50.939Z,4.57
2022-11-12T23:39:36.328Z,5.03
2022-11-12T23:42:21.855Z,5.30
2022-11-12T23:45:07.762Z,9.20
2022-11-12T23:47:55.489Z,5.90
2022-11-12T23:50:41.038Z,4.67
2022-11-12T23:53:26.384Z,8.07
2022-11-12T23:56:13.772Z,9.87
2022-11-12T23:58:59.204Z,6.53
